sensor_id;sensor_type;location;lat;lon;timestamp;P1;durP1;ratioP1;P2;durP2;ratioP2
36211;SDS011;22247;48.586;13.492;2022-09-14T00:01:26;2.50;;;1.15;;
36211;SDS011;22247;48.586;13.492;2022-09-14T00:04:00;4.38;;;1.63;;
36211;SDS011;22247;48.586;13.492;2022-09-14T00:06:30;2.13;;;1.80;;
36211;SDS011;22247;48.586;13.492;2022-09-14T00:08:59;5.45;;;1.50;;
36211;SDS011;22247;48.586;13.492;2022-09-14T00:11:27;3.63;;;2.08;;
36211;SDS011;22247;48.586;13.492;2022-09-14T00:13:55;2.67;;;1.20;;
36211;SDS011;22247;48.586;13.492;2022-09-14T00:16:34;5.05;;;1.60;;
36211;SDS011;22247;48.586;13.492;2022-09-14T00:19:07;1.60;;;1.50;;
36211;SDS011;22247;48.586;13.492;2022-09-14T00:21:54;2.85;;;1.75;;
36211;SDS011;22247;48.586;13.492;2022-09-14T00:24:22;3.72;;;1.65;;
36211;SDS011;22247;48.586;13.492;2022-09-14T00:26:49;7.20;;;1.55;;
36211;SDS011;22247;48.586;13.492;2022-09-14T00:29:18;2.72;;;1.63;;
36211;SDS011;22247;48.586;13.492;2022-09-14T00:31:44;2.88;;;1.25;;
36211;SDS011;22247;48.586;13.492;2022-09-14T00:34:12;5.93;;;1.90;;
36211;SDS011;22247;48.586;13.492;2022-09-14T00:36:43;3.70;;;1.55;;
36211;SDS011;22247;48.586;13.492;2022-09-14T00:39:11;3.60;;;0.98;;
36211;SDS011;22247;48.586;13.492;2022-09-14T00:41:43;1.42;;;1.30;;
36211;SDS011;22247;48.586;13.492;2022-09-14T00:46:45;2.53;;;1.20;;
36211;SDS011;22247;48.586;13.492;2022-09-14T00:51:50;4.35;;;1.00;;
36211;SDS011;22247;48.586;13.492;2022-09-14T00:54:20;2.08;;;0.90;;
36211;SDS011;22247;48.586;13.492;2022-09-14T00:56:46;3.15;;;1.15;;
36211;SDS011;22247;48.586;13.492;2022-09-14T00:59:18;6.07;;;1.50;;
36211;SDS011;22247;48.586;13.492;2022-09-14T01:01:47;3.88;;;1.30;;
36211;SDS011;22247;48.586;13.492;2022-09-14T01:04:13;3.38;;;1.27;;
36211;SDS011;22247;48.586;13.492;2022-09-14T01:14:24;4.32;;;1.65;;
36211;SDS011;22247;48.586;13.492;2022-09-14T01:22:41;7.28;;;1.67;;
36211;SDS011;22247;48.586;13.492;2022-09-14T01:28:00;4.05;;;1.48;;
36211;SDS011;22247;48.586;13.492;2022-09-14T01:30:34;2.08;;;1.63;;
36211;SDS011;22247;48.586;13.492;2022-09-14T01:33:05;3.10;;;1.42;;
36211;SDS011;22247;48.586;13.492;2022-09-14T01:35:56;4.03;;;1.88;;
36211;SDS011;22247;48.586;13.492;2022-09-14T01:38:26;5.57;;;2.28;;
36211;SDS011;22247;48.586;13.492;2022-09-14T01:41:14;2.70;;;1.63;;
36211;SDS011;22247;48.586;13.492;2022-09-14T01:43:49;6.57;;;1.52;;
36211;SDS011;22247;48.586;13.492;2022-09-14T01:46:24;5.60;;;1.70;;
36211;SDS011;22247;48.586;13.492;2022-09-14T01:54:27;2.13;;;1.27;;
36211;SDS011;22247;48.586;13.492;2022-09-14T01:56:55;3.25;;;1.23;;
36211;SDS011;22247;48.586;13.492;2022-09-14T01:59:38;6.55;;;1.48;;
36211;SDS011;22247;48.586;13.492;2022-09-14T02:02:21;4.37;;;1.00;;
36211;SDS011;22247;48.586;13.492;2022-09-14T02:05:02;6.57;;;2.40;;
36211;SDS011;22247;48.586;13.492;2022-09-14T02:07:35;4.93;;;1.90;;
36211;SDS011;22247;48.586;13.492;2022-09-14T02:10:04;4.15;;;1.50;;
36211;SDS011;22247;48.586;13.492;2022-09-14T02:15:07;4.40;;;1.65;;
36211;SDS011;22247;48.586;13.492;2022-09-14T02:17:37;3.38;;;1.45;;
36211;SDS011;22247;48.586;13.492;2022-09-14T02:20:04;7.28;;;1.35;;
36211;SDS011;22247;48.586;13.492;2022-09-14T02:25:01;5.05;;;1.88;;
36211;SDS011;22247;48.586;13.492;2022-09-14T02:27:32;2.13;;;1.42;;
36211;SDS011;22247;48.586;13.492;2022-09-14T02:29:59;5.20;;;1.80;;
36211;SDS011;22247;48.586;13.492;2022-09-14T02:32:29;3.85;;;1.70;;
36211;SDS011;22247;48.586;13.492;2022-09-14T02:35:08;5.90;;;2.38;;
36211;SDS011;22247;48.586;13.492;2022-09-14T02:40:45;7.28;;;2.42;;
36211;SDS011;22247;48.586;13.492;2022-09-14T02:49:00;7.22;;;2.22;;
36211;SDS011;22247;48.586;13.492;2022-09-14T02:51:39;9.38;;;2.95;;
36211;SDS011;22247;48.586;13.492;2022-09-14T02:54:27;5.25;;;1.63;;
36211;SDS011;22247;48.586;13.492;2022-09-14T02:56:58;8.60;;;1.95;;
36211;SDS011;22247;48.586;13.492;2022-09-14T02:59:30;2.45;;;2.22;;
36211;SDS011;22247;48.586;13.492;2022-09-14T03:01:58;4.40;;;1.50;;
36211;SDS011;22247;48.586;13.492;2022-09-14T03:04:29;4.68;;;1.80;;
36211;SDS011;22247;48.586;13.492;2022-09-14T03:06:55;6.90;;;1.70;;
36211;SDS011;22247;48.586;13.492;2022-09-14T03:09:20;4.18;;;1.38;;
36211;SDS011;22247;48.586;13.492;2022-09-14T03:11:49;3.10;;;1.45;;
36211;SDS011;22247;48.586;13.492;2022-09-14T03:14:14;3.80;;;1.20;;
36211;SDS011;22247;48.586;13.492;2022-09-14T03:16:40;3.13;;;1.40;;
36211;SDS011;22247;48.586;13.492;2022-09-14T03:19:08;2.50;;;1.13;;
36211;SDS011;22247;48.586;13.492;2022-09-14T03:21:36;5.80;;;1.42;;
36211;SDS011;22247;48.586;13.492;2022-09-14T03:24:03;4.25;;;1.33;;
36211;SDS011;22247;48.586;13.492;2022-09-14T03:26:29;5.07;;;1.20;;
36211;SDS011;22247;48.586;13.492;2022-09-14T03:28:55;5.03;;;1.27;;
36211;SDS011;22247;48.586;13.492;2022-09-14T03:31:26;8.95;;;2.15;;
36211;SDS011;22247;48.586;13.492;2022-09-14T03:33:55;7.75;;;1.55;;
36211;SDS011;22247;48.586;13.492;2022-09-14T03:36:27;3.00;;;1.15;;
36211;SDS011;22247;48.586;13.492;2022-09-14T03:38:54;7.05;;;3.00;;
36211;SDS011;22247;48.586;13.492;2022-09-14T03:41:22;3.53;;;1.38;;
36211;SDS011;22247;48.586;13.492;2022-09-14T03:43:51;3.15;;;1.67;;
36211;SDS011;22247;48.586;13.492;2022-09-14T03:46:20;5.53;;;2.13;;
36211;SDS011;22247;48.586;13.492;2022-09-14T03:48:49;2.28;;;1.45;;
36211;SDS011;22247;48.586;13.492;2022-09-14T03:51:20;4.18;;;1.42;;
36211;SDS011;22247;48.586;13.492;2022-09-14T03:53:46;5.35;;;1.58;;
36211;SDS011;22247;48.586;13.492;2022-09-14T03:56:14;4.35;;;1.45;;
36211;SDS011;22247;48.586;13.492;2022-09-14T03:58:42;7.00;;;1.85;;
36211;SDS011;22247;48.586;13.492;2022-09-14T04:01:11;2.38;;;1.17;;
36211;SDS011;22247;48.586;13.492;2022-09-14T04:03:42;3.33;;;1.65;;
36211;SDS011;22247;48.586;13.492;2022-09-14T04:06:07;2.95;;;2.65;;
36211;SDS011;22247;48.586;13.492;2022-09-14T04:08:34;7.07;;;2.30;;
36211;SDS011;22247;48.586;13.492;2022-09-14T04:13:32;5.70;;;1.80;;
36211;SDS011;22247;48.586;13.492;2022-09-14T04:15:58;3.17;;;1.77;;
36211;SDS011;22247;48.586;13.492;2022-09-14T04:18:26;5.45;;;1.52;;
36211;SDS011;22247;48.586;13.492;2022-09-14T04:20:53;1.95;;;1.35;;
36211;SDS011;22247;48.586;13.492;2022-09-14T04:23:19;4.55;;;1.70;;
36211;SDS011;22247;48.586;13.492;2022-09-14T04:25:47;6.18;;;1.70;;
36211;SDS011;22247;48.586;13.492;2022-09-14T04:28:15;4.07;;;1.25;;
36211;SDS011;22247;48.586;13.492;2022-09-14T04:30:41;3.13;;;1.15;;
36211;SDS011;22247;48.586;13.492;2022-09-14T04:33:20;2.58;;;1.23;;
36211;SDS011;22247;48.586;13.492;2022-09-14T04:35:58;2.42;;;1.40;;
36211;SDS011;22247;48.586;13.492;2022-09-14T04:38:27;3.28;;;1.23;;
36211;SDS011;22247;48.586;13.492;2022-09-14T04:40:54;4.13;;;1.48;;
36211;SDS011;22247;48.586;13.492;2022-09-14T04:43:24;4.15;;;1.67;;
36211;SDS011;22247;48.586;13.492;2022-09-14T04:45:50;3.15;;;1.30;;
36211;SDS011;22247;48.586;13.492;2022-09-14T04:48:17;2.25;;;1.60;;
36211;SDS011;22247;48.586;13.492;2022-09-14T04:50:44;3.65;;;1.27;;
36211;SDS011;22247;48.586;13.492;2022-09-14T04:53:14;2.88;;;1.67;;
36211;SDS011;22247;48.586;13.492;2022-09-14T04:55:42;6.00;;;1.52;;
36211;SDS011;22247;48.586;13.492;2022-09-14T04:58:08;13.75;;;3.40;;
36211;SDS011;22247;48.586;13.492;2022-09-14T05:00:36;8.95;;;2.65;;
36211;SDS011;22247;48.586;13.492;2022-09-14T05:03:02;3.92;;;2.15;;
36211;SDS011;22247;48.586;13.492;2022-09-14T05:05:29;4.32;;;1.98;;
36211;SDS011;22247;48.586;13.492;2022-09-14T05:07:58;4.53;;;1.80;;
36211;SDS011;22247;48.586;13.492;2022-09-14T05:10:24;3.15;;;1.42;;
36211;SDS011;22247;48.586;13.492;2022-09-14T05:12:50;5.50;;;1.83;;
36211;SDS011;22247;48.586;13.492;2022-09-14T05:15:15;3.97;;;1.77;;
36211;SDS011;22247;48.586;13.492;2022-09-14T05:17:43;5.68;;;1.80;;
36211;SDS011;22247;48.586;13.492;2022-09-14T05:20:11;2.50;;;1.60;;
36211;SDS011;22247;48.586;13.492;2022-09-14T05:22:37;5.47;;;1.77;;
36211;SDS011;22247;48.586;13.492;2022-09-14T05:25:05;2.80;;;1.92;;
36211;SDS011;22247;48.586;13.492;2022-09-14T05:27:33;1.98;;;1.73;;
36211;SDS011;22247;48.586;13.492;2022-09-14T05:29:59;2.20;;;1.40;;
36211;SDS011;22247;48.586;13.492;2022-09-14T05:32:27;3.70;;;1.65;;
36211;SDS011;22247;48.586;13.492;2022-09-14T05:34:55;4.93;;;1.42;;
36211;SDS011;22247;48.586;13.492;2022-09-14T05:37:23;2.78;;;1.55;;
36211;SDS011;22247;48.586;13.492;2022-09-14T05:39:48;3.85;;;1.67;;
36211;SDS011;22247;48.586;13.492;2022-09-14T05:42:14;3.65;;;1.40;;
36211;SDS011;22247;48.586;13.492;2022-09-14T05:44:42;2.85;;;2.45;;
36211;SDS011;22247;48.586;13.492;2022-09-14T05:47:09;2.40;;;1.77;;
36211;SDS011;22247;48.586;13.492;2022-09-14T05:49:37;3.75;;;2.47;;
36211;SDS011;22247;48.586;13.492;2022-09-14T05:52:03;3.53;;;2.55;;
36211;SDS011;22247;48.586;13.492;2022-09-14T05:54:29;5.55;;;3.30;;
36211;SDS011;22247;48.586;13.492;2022-09-14T05:56:56;6.28;;;2.35;;
36211;SDS011;22247;48.586;13.492;2022-09-14T05:59:24;4.43;;;2.42;;
36211;SDS011;22247;48.586;13.492;2022-09-14T06:01:52;5.75;;;2.65;;
36211;SDS011;22247;48.586;13.492;2022-09-14T06:04:18;13.55;;;3.33;;
36211;SDS011;22247;48.586;13.492;2022-09-14T06:06:43;6.65;;;2.50;;
36211;SDS011;22247;48.586;13.492;2022-09-14T06:09:09;5.88;;;3.05;;
36211;SDS011;22247;48.586;13.492;2022-09-14T06:11:37;7.70;;;3.55;;
36211;SDS011;22247;48.586;13.492;2022-09-14T06:14:03;6.38;;;3.10;;
36211;SDS011;22247;48.586;13.492;2022-09-14T06:16:32;8.05;;;3.80;;
36211;SDS011;22247;48.586;13.492;2022-09-14T06:19:00;4.00;;;2.65;;
36211;SDS011;22247;48.586;13.492;2022-09-14T06:21:30;5.57;;;2.97;;
36211;SDS011;22247;48.586;13.492;2022-09-14T06:23:57;6.00;;;3.28;;
36211;SDS011;22247;48.586;13.492;2022-09-14T06:26:28;2.40;;;2.20;;
36211;SDS011;22247;48.586;13.492;2022-09-14T06:28:54;4.90;;;2.05;;
36211;SDS011;22247;48.586;13.492;2022-09-14T06:31:20;3.58;;;2.17;;
36211;SDS011;22247;48.586;13.492;2022-09-14T06:33:51;4.50;;;1.77;;
36211;SDS011;22247;48.586;13.492;2022-09-14T06:36:21;2.88;;;2.55;;
36211;SDS011;22247;48.586;13.492;2022-09-14T06:41:17;4.97;;;2.72;;
36211;SDS011;22247;48.586;13.492;2022-09-14T06:43:48;5.70;;;2.75;;
36211;SDS011;22247;48.586;13.492;2022-09-14T06:46:18;4.82;;;2.85;;
36211;SDS011;22247;48.586;13.492;2022-09-14T06:48:49;5.53;;;3.17;;
36211;SDS011;22247;48.586;13.492;2022-09-14T06:51:22;3.83;;;2.42;;
36211;SDS011;22247;48.586;13.492;2022-09-14T06:53:54;8.95;;;2.83;;
36211;SDS011;22247;48.586;13.492;2022-09-14T06:56:21;4.80;;;3.20;;
36211;SDS011;22247;48.586;13.492;2022-09-14T06:58:52;6.55;;;2.72;;
36211;SDS011;22247;48.586;13.492;2022-09-14T07:01:20;3.35;;;2.53;;
36211;SDS011;22247;48.586;13.492;2022-09-14T07:03:46;6.40;;;2.90;;
36211;SDS011;22247;48.586;13.492;2022-09-14T07:06:17;4.50;;;1.88;;
36211;SDS011;22247;48.586;13.492;2022-09-14T07:08:50;5.00;;;2.25;;
36211;SDS011;22247;48.586;13.492;2022-09-14T07:11:18;6.60;;;2.20;;
36211;SDS011;22247;48.586;13.492;2022-09-14T07:13:47;4.05;;;1.88;;
36211;SDS011;22247;48.586;13.492;2022-09-14T07:16:13;3.35;;;2.47;;
36211;SDS011;22247;48.586;13.492;2022-09-14T07:18:39;7.53;;;2.42;;
36211;SDS011;22247;48.586;13.492;2022-09-14T07:21:09;4.30;;;1.58;;
36211;SDS011;22247;48.586;13.492;2022-09-14T07:23:37;4.40;;;1.67;;
36211;SDS011;22247;48.586;13.492;2022-09-14T07:26:05;3.25;;;1.48;;
36211;SDS011;22247;48.586;13.492;2022-09-14T07:28:38;5.95;;;1.50;;
36211;SDS011;22247;48.586;13.492;2022-09-14T07:31:12;3.53;;;1.42;;
36211;SDS011;22247;48.586;13.492;2022-09-14T07:33:52;3.58;;;1.15;;
36211;SDS011;22247;48.586;13.492;2022-09-14T07:36:19;2.53;;;1.52;;
36211;SDS011;22247;48.586;13.492;2022-09-14T07:38:48;2.80;;;1.00;;
36211;SDS011;22247;48.586;13.492;2022-09-14T07:41:20;7.03;;;1.30;;
36211;SDS011;22247;48.586;13.492;2022-09-14T07:43:48;6.63;;;1.23;;
36211;SDS011;22247;48.586;13.492;2022-09-14T07:46:17;6.68;;;1.60;;
36211;SDS011;22247;48.586;13.492;2022-09-14T07:48:46;5.38;;;1.80;;
36211;SDS011;22247;48.586;13.492;2022-09-14T07:51:13;1.75;;;1.27;;
36211;SDS011;22247;48.586;13.492;2022-09-14T07:53:39;4.47;;;1.25;;
36211;SDS011;22247;48.586;13.492;2022-09-14T07:56:12;1.85;;;1.23;;
36211;SDS011;22247;48.586;13.492;2022-09-14T07:58:38;4.47;;;1.58;;
36211;SDS011;22247;48.586;13.492;2022-09-14T08:01:05;3.58;;;1.63;;
36211;SDS011;22247;48.586;13.492;2022-09-14T08:03:39;3.47;;;1.40;;
36211;SDS011;22247;48.586;13.492;2022-09-14T08:08:39;3.38;;;1.27;;
36211;SDS011;22247;48.586;13.492;2022-09-14T08:14:06;2.35;;;1.20;;
36211;SDS011;22247;48.586;13.492;2022-09-14T08:16:32;5.47;;;1.00;;
36211;SDS011;22247;48.586;13.492;2022-09-14T08:19:05;1.52;;;1.10;;
36211;SDS011;22247;48.586;13.492;2022-09-14T08:21:41;3.40;;;1.00;;
36211;SDS011;22247;48.586;13.492;2022-09-14T08:24:10;3.65;;;0.88;;
36211;SDS011;22247;48.586;13.492;2022-09-14T08:26:42;3.05;;;0.88;;
36211;SDS011;22247;48.586;13.492;2022-09-14T08:29:07;4.90;;;0.88;;
36211;SDS011;22247;48.586;13.492;2022-09-14T08:31:36;4.28;;;0.75;;
36211;SDS011;22247;48.586;13.492;2022-09-14T08:34:03;5.55;;;0.82;;
36211;SDS011;22247;48.586;13.492;2022-09-14T08:36:35;1.43;;;0.70;;
36211;SDS011;22247;48.586;13.492;2022-09-14T08:39:02;1.80;;;0.70;;
36211;SDS011;22247;48.586;13.492;2022-09-14T08:46:43;4.35;;;1.10;;
36211;SDS011;22247;48.586;13.492;2022-09-14T08:52:23;2.47;;;1.02;;
36211;SDS011;22247;48.586;13.492;2022-09-14T08:54:51;2.53;;;1.35;;
36211;SDS011;22247;48.586;13.492;2022-09-14T09:11:39;1.25;;;0.73;;
36211;SDS011;22247;48.586;13.492;2022-09-14T09:14:41;3.80;;;0.70;;
36211;SDS011;22247;48.586;13.492;2022-09-14T09:17:03;2.53;;;0.70;;
36211;SDS011;22247;48.586;13.492;2022-09-14T09:19:38;3.75;;;0.70;;
36211;SDS011;22247;48.586;13.492;2022-09-14T09:22:14;3.67;;;0.80;;
36211;SDS011;22247;48.586;13.492;2022-09-14T09:24:44;0.90;;;0.60;;
36211;SDS011;22247;48.586;13.492;2022-09-14T09:27:15;1.10;;;0.80;;
36211;SDS011;22247;48.586;13.492;2022-09-14T09:29:40;4.30;;;0.65;;
36211;SDS011;22247;48.586;13.492;2022-09-14T09:32:07;3.85;;;0.60;;
36211;SDS011;22247;48.586;13.492;2022-09-14T09:34:56;4.43;;;0.82;;
36211;SDS011;22247;48.586;13.492;2022-09-14T09:37:36;1.90;;;0.75;;
36211;SDS011;22247;48.586;13.492;2022-09-14T09:40:16;1.65;;;0.70;;
36211;SDS011;22247;48.586;13.492;2022-09-14T09:48:19;3.13;;;0.70;;
36211;SDS011;22247;48.586;13.492;2022-09-14T09:50:48;5.45;;;0.70;;
36211;SDS011;22247;48.586;13.492;2022-09-14T09:53:21;1.92;;;0.70;;
36211;SDS011;22247;48.586;13.492;2022-09-14T09:55:48;3.45;;;0.60;;
36211;SDS011;22247;48.586;13.492;2022-09-14T09:58:27;1.98;;;0.70;;
36211;SDS011;22247;48.586;13.492;2022-09-14T10:01:05;2.15;;;0.60;;
36211;SDS011;22247;48.586;13.492;2022-09-14T10:03:43;2.70;;;0.70;;
36211;SDS011;22247;48.586;13.492;2022-09-14T10:06:29;3.72;;;0.47;;
36211;SDS011;22247;48.586;13.492;2022-09-14T10:08:55;3.75;;;0.52;;
36211;SDS011;22247;48.586;13.492;2022-09-14T10:14:01;1.90;;;0.82;;
36211;SDS011;22247;48.586;13.492;2022-09-14T10:16:35;8.23;;;0.88;;
36211;SDS011;22247;48.586;13.492;2022-09-14T10:19:11;3.80;;;0.77;;
36211;SDS011;22247;48.586;13.492;2022-09-14T10:24:39;2.08;;;0.73;;
36211;SDS011;22247;48.586;13.492;2022-09-14T10:27:31;4.53;;;0.60;;
36211;SDS011;22247;48.586;13.492;2022-09-14T10:30:04;1.33;;;0.55;;
36211;SDS011;22247;48.586;13.492;2022-09-14T10:32:34;1.63;;;0.93;;
36211;SDS011;22247;48.586;13.492;2022-09-14T10:35:01;1.83;;;0.57;;
36211;SDS011;22247;48.586;13.492;2022-09-14T10:37:37;3.50;;;0.55;;
36211;SDS011;22247;48.586;13.492;2022-09-14T10:40:18;3.22;;;0.60;;
36211;SDS011;22247;48.586;13.492;2022-09-14T10:45:38;4.18;;;0.90;;
36211;SDS011;22247;48.586;13.492;2022-09-14T10:51:45;6.20;;;1.42;;
36211;SDS011;22247;48.586;13.492;2022-09-14T11:00:19;1.40;;;0.70;;
36211;SDS011;22247;48.586;13.492;2022-09-14T11:10:27;1.30;;;0.40;;
36211;SDS011;22247;48.586;13.492;2022-09-14T11:13:03;1.90;;;0.50;;
36211;SDS011;22247;48.586;13.492;2022-09-14T11:18:27;2.25;;;0.50;;
36211;SDS011;22247;48.586;13.492;2022-09-14T11:21:27;1.25;;;0.40;;
36211;SDS011;22247;48.586;13.492;2022-09-14T11:23:58;1.88;;;0.63;;
36211;SDS011;22247;48.586;13.492;2022-09-14T11:31:54;1.10;;;0.68;;
36211;SDS011;22247;48.586;13.492;2022-09-14T11:34:42;7.03;;;0.70;;
36211;SDS011;22247;48.586;13.492;2022-09-14T11:37:18;1.83;;;0.80;;
36211;SDS011;22247;48.586;13.492;2022-09-14T11:39:54;3.22;;;0.50;;
36211;SDS011;22247;48.586;13.492;2022-09-14T11:42:56;1.25;;;0.40;;
36211;SDS011;22247;48.586;13.492;2022-09-14T11:51:35;6.32;;;0.50;;
36211;SDS011;22247;48.586;13.492;2022-09-14T11:54:18;1.33;;;0.50;;
36211;SDS011;22247;48.586;13.492;2022-09-14T11:56:48;4.63;;;0.60;;
36211;SDS011;22247;48.586;13.492;2022-09-14T11:59:35;1.38;;;0.40;;
36211;SDS011;22247;48.586;13.492;2022-09-14T12:10:19;2.53;;;0.50;;
36211;SDS011;22247;48.586;13.492;2022-09-14T12:15:31;1.10;;;0.50;;
36211;SDS011;22247;48.586;13.492;2022-09-14T12:31:05;2.03;;;0.57;;
36211;SDS011;22247;48.586;13.492;2022-09-14T12:36:02;1.45;;;0.50;;
36211;SDS011;22247;48.586;13.492;2022-09-14T12:43:54;4.43;;;0.60;;
36211;SDS011;22247;48.586;13.492;2022-09-14T12:56:43;2.47;;;0.50;;
36211;SDS011;22247;48.586;13.492;2022-09-14T13:00:08;4.57;;;0.50;;
36211;SDS011;22247;48.586;13.492;2022-09-14T13:05:35;3.35;;;0.50;;
36211;SDS011;22247;48.586;13.492;2022-09-14T13:08:09;3.90;;;0.50;;
36211;SDS011;22247;48.586;13.492;2022-09-14T13:10:47;1.88;;;0.50;;
36211;SDS011;22247;48.586;13.492;2022-09-14T13:13:26;2.05;;;0.70;;
36211;SDS011;22247;48.586;13.492;2022-09-14T13:16:00;1.13;;;0.50;;
36211;SDS011;22247;48.586;13.492;2022-09-14T13:18:35;1.20;;;0.75;;
36211;SDS011;22247;48.586;13.492;2022-09-14T13:21:21;1.52;;;0.55;;
36211;SDS011;22247;48.586;13.492;2022-09-14T13:23:48;2.85;;;0.60;;
36211;SDS011;22247;48.586;13.492;2022-09-14T13:26:30;1.67;;;0.50;;
36211;SDS011;22247;48.586;13.492;2022-09-14T13:29:00;5.15;;;0.77;;
36211;SDS011;22247;48.586;13.492;2022-09-14T13:31:36;2.90;;;0.55;;
36211;SDS011;22247;48.586;13.492;2022-09-14T13:34:03;2.08;;;0.50;;
36211;SDS011;22247;48.586;13.492;2022-09-14T13:36:34;0.95;;;0.47;;
36211;SDS011;22247;48.586;13.492;2022-09-14T13:39:04;2.85;;;0.60;;
36211;SDS011;22247;48.586;13.492;2022-09-14T13:41:49;2.85;;;0.60;;
36211;SDS011;22247;48.586;13.492;2022-09-14T13:44:14;3.95;;;0.80;;
36211;SDS011;22247;48.586;13.492;2022-09-14T13:46:41;2.15;;;0.50;;
36211;SDS011;22247;48.586;13.492;2022-09-14T13:49:07;0.60;;;0.40;;
36211;SDS011;22247;48.586;13.492;2022-09-14T13:51:35;3.55;;;0.45;;
36211;SDS011;22247;48.586;13.492;2022-09-14T13:57:10;3.47;;;0.93;;
36211;SDS011;22247;48.586;13.492;2022-09-14T14:02:43;3.03;;;0.40;;
36211;SDS011;22247;48.586;13.492;2022-09-14T14:07:51;2.75;;;1.15;;
36211;SDS011;22247;48.586;13.492;2022-09-14T14:10:26;3.25;;;0.40;;
36211;SDS011;22247;48.586;13.492;2022-09-14T14:13:02;2.78;;;0.50;;
36211;SDS011;22247;48.586;13.492;2022-09-14T14:21:15;14.75;;;2.67;;
36211;SDS011;22247;48.586;13.492;2022-09-14T14:23:53;2.97;;;0.50;;
36211;SDS011;22247;48.586;13.492;2022-09-14T14:26:52;4.20;;;0.60;;
36211;SDS011;22247;48.586;13.492;2022-09-14T14:29:21;2.47;;;0.47;;
36211;SDS011;22247;48.586;13.492;2022-09-14T14:31:47;1.88;;;0.98;;
36211;SDS011;22247;48.586;13.492;2022-09-14T14:34:21;2.60;;;0.60;;
36211;SDS011;22247;48.586;13.492;2022-09-14T14:36:49;3.45;;;0.50;;
36211;SDS011;22247;48.586;13.492;2022-09-14T14:39:18;1.85;;;0.40;;
36211;SDS011;22247;48.586;13.492;2022-09-14T14:41:46;2.75;;;0.50;;
36211;SDS011;22247;48.586;13.492;2022-09-14T14:44:15;1.02;;;0.50;;
36211;SDS011;22247;48.586;13.492;2022-09-14T14:46:49;2.25;;;0.60;;
36211;SDS011;22247;48.586;13.492;2022-09-14T14:49:16;3.30;;;1.05;;
36211;SDS011;22247;48.586;13.492;2022-09-14T14:51:44;2.30;;;0.52;;
36211;SDS011;22247;48.586;13.492;2022-09-14T14:54:11;3.40;;;0.80;;
36211;SDS011;22247;48.586;13.492;2022-09-14T14:56:40;1.77;;;0.50;;
36211;SDS011;22247;48.586;13.492;2022-09-14T15:01:47;5.22;;;0.40;;
36211;SDS011;22247;48.586;13.492;2022-09-14T15:04:14;3.28;;;0.85;;
36211;SDS011;22247;48.586;13.492;2022-09-14T15:06:48;5.45;;;1.30;;
36211;SDS011;22247;48.586;13.492;2022-09-14T15:09:18;3.35;;;0.40;;
36211;SDS011;22247;48.586;13.492;2022-09-14T15:11:45;3.45;;;0.40;;
36211;SDS011;22247;48.586;13.492;2022-09-14T15:14:14;2.58;;;0.65;;
36211;SDS011;22247;48.586;13.492;2022-09-14T15:16:41;3.50;;;0.43;;
36211;SDS011;22247;48.586;13.492;2022-09-14T15:19:07;1.15;;;0.40;;
36211;SDS011;22247;48.586;13.492;2022-09-14T15:21:34;3.03;;;0.40;;
36211;SDS011;22247;48.586;13.492;2022-09-14T15:24:00;1.45;;;0.40;;
36211;SDS011;22247;48.586;13.492;2022-09-14T15:26:26;3.05;;;0.50;;
36211;SDS011;22247;48.586;13.492;2022-09-14T15:28:52;4.50;;;0.47;;
36211;SDS011;22247;48.586;13.492;2022-09-14T15:31:18;5.00;;;0.43;;
36211;SDS011;22247;48.586;13.492;2022-09-14T15:33:46;2.45;;;0.50;;
36211;SDS011;22247;48.586;13.492;2022-09-14T15:36:12;3.15;;;0.40;;
36211;SDS011;22247;48.586;13.492;2022-09-14T15:38:57;0.80;;;0.47;;
36211;SDS011;22247;48.586;13.492;2022-09-14T15:41:23;4.28;;;0.40;;
36211;SDS011;22247;48.586;13.492;2022-09-14T15:43:48;1.23;;;0.40;;
36211;SDS011;22247;48.586;13.492;2022-09-14T15:46:14;2.97;;;0.40;;
36211;SDS011;22247;48.586;13.492;2022-09-14T15:48:42;5.45;;;0.50;;
36211;SDS011;22247;48.586;13.492;2022-09-14T15:51:09;2.45;;;0.40;;
36211;SDS011;22247;48.586;13.492;2022-09-14T15:53:40;4.32;;;0.40;;
36211;SDS011;22247;48.586;13.492;2022-09-14T15:56:14;4.10;;;0.40;;
36211;SDS011;22247;48.586;13.492;2022-09-14T15:58:43;3.60;;;0.50;;
36211;SDS011;22247;48.586;13.492;2022-09-14T16:01:11;3.55;;;0.40;;
36211;SDS011;22247;48.586;13.492;2022-09-14T16:03:40;6.55;;;1.83;;
36211;SDS011;22247;48.586;13.492;2022-09-14T16:06:09;2.05;;;0.77;;
36211;SDS011;22247;48.586;13.492;2022-09-14T16:08:40;0.90;;;0.40;;
36211;SDS011;22247;48.586;13.492;2022-09-14T16:11:06;1.30;;;0.47;;
36211;SDS011;22247;48.586;13.492;2022-09-14T16:13:33;1.00;;;0.35;;
36211;SDS011;22247;48.586;13.492;2022-09-14T16:16:03;1.45;;;0.50;;
36211;SDS011;22247;48.586;13.492;2022-09-14T16:18:28;1.33;;;0.40;;
36211;SDS011;22247;48.586;13.492;2022-09-14T16:21:02;2.47;;;0.60;;
36211;SDS011;22247;48.586;13.492;2022-09-14T16:23:35;4.40;;;0.50;;
36211;SDS011;22247;48.586;13.492;2022-09-14T16:26:06;1.65;;;0.40;;
36211;SDS011;22247;48.586;13.492;2022-09-14T16:28:36;1.40;;;0.40;;
36211;SDS011;22247;48.586;13.492;2022-09-14T16:31:03;1.95;;;0.40;;
36211;SDS011;22247;48.586;13.492;2022-09-14T16:33:37;3.92;;;0.50;;
36211;SDS011;22247;48.586;13.492;2022-09-14T16:36:04;2.40;;;0.50;;
36211;SDS011;22247;48.586;13.492;2022-09-14T16:38:36;2.75;;;0.50;;
36211;SDS011;22247;48.586;13.492;2022-09-14T16:41:04;3.28;;;0.40;;
36211;SDS011;22247;48.586;13.492;2022-09-14T16:43:31;1.77;;;0.40;;
36211;SDS011;22247;48.586;13.492;2022-09-14T16:50:58;10.32;;;0.80;;
36211;SDS011;22247;48.586;13.492;2022-09-14T16:53:29;7.80;;;0.70;;
36211;SDS011;22247;48.586;13.492;2022-09-14T16:56:04;4.00;;;1.52;;
36211;SDS011;22247;48.586;13.492;2022-09-14T16:58:35;4.22;;;1.00;;
36211;SDS011;22247;48.586;13.492;2022-09-14T17:01:03;5.35;;;1.17;;
36211;SDS011;22247;48.586;13.492;2022-09-14T17:03:31;4.90;;;1.40;;
36211;SDS011;22247;48.586;13.492;2022-09-14T17:06:01;4.82;;;1.05;;
36211;SDS011;22247;48.586;13.492;2022-09-14T17:08:31;6.97;;;1.10;;
36211;SDS011;22247;48.586;13.492;2022-09-14T17:10:58;9.30;;;1.42;;
36211;SDS011;22247;48.586;13.492;2022-09-14T17:13:25;6.53;;;1.17;;
36211;SDS011;22247;48.586;13.492;2022-09-14T17:15:51;5.95;;;0.60;;
36211;SDS011;22247;48.586;13.492;2022-09-14T17:18:28;2.30;;;0.32;;
36211;SDS011;22247;48.586;13.492;2022-09-14T17:20:58;3.25;;;0.55;;
36211;SDS011;22247;48.586;13.492;2022-09-14T17:23:25;5.05;;;0.50;;
36211;SDS011;22247;48.586;13.492;2022-09-14T17:25:51;2.20;;;0.50;;
36211;SDS011;22247;48.586;13.492;2022-09-14T17:28:20;6.22;;;0.82;;
36211;SDS011;22247;48.586;13.492;2022-09-14T17:30:49;1.88;;;0.40;;
36211;SDS011;22247;48.586;13.492;2022-09-14T17:33:16;4.35;;;0.40;;
36211;SDS011;22247;48.586;13.492;2022-09-14T17:35:50;1.98;;;0.30;;
36211;SDS011;22247;48.586;13.492;2022-09-14T17:38:18;1.25;;;0.30;;
36211;SDS011;22247;48.586;13.492;2022-09-14T17:40:45;4.32;;;0.20;;
36211;SDS011;22247;48.586;13.492;2022-09-14T17:43:16;1.63;;;0.20;;
36211;SDS011;22247;48.586;13.492;2022-09-14T17:45:51;3.55;;;0.20;;
36211;SDS011;22247;48.586;13.492;2022-09-14T17:48:23;3.40;;;0.20;;
36211;SDS011;22247;48.586;13.492;2022-09-14T17:50:49;4.65;;;0.30;;
36211;SDS011;22247;48.586;13.492;2022-09-14T17:53:17;2.75;;;0.20;;
36211;SDS011;22247;48.586;13.492;2022-09-14T17:55:44;2.25;;;0.20;;
36211;SDS011;22247;48.586;13.492;2022-09-14T17:58:15;1.02;;;0.30;;
36211;SDS011;22247;48.586;13.492;2022-09-14T18:00:43;3.28;;;0.40;;